createdAt,value
2022-12-29T00:00:15.812Z,8.51
2022-12-29T00:01:15.796Z,8.51
2022-12-29T00:02:15.839Z,8.52
2022-12-29T00:03:15.864Z,8.52
2022-12-29T00:04:15.972Z,8.52
2022-12-29T00:05:15.767Z,8.52
2022-12-29T00:06:15.731Z,8.52
2022-12-29T00:07:15.758Z,8.52
2022-12-29T00:08:15.706Z,8.52
2022-12-29T00:09:15.704Z,8.52
2022-12-29T00:10:15.690Z,8.52
2022-12-29T00:11:15.716Z,8.52
2022-12-29T00:12:15.690Z,8.51
2022-12-29T00:13:15.687Z,8.51
2022-12-29T00:14:15.648Z,8.51
2022-12-29T00:15:15.640Z,8.51
2022-12-29T00:16:15.685Z,8.51
2022-12-29T00:17:15.631Z,8.51
2022-12-29T00:18:15.603Z,8.51
2022-12-29T00:19:15.588Z,8.52
2022-12-29T00:20:15.579Z,8.52
2022-12-29T00:21:15.583Z,8.53
2022-12-29T00:22:15.571Z,8.53
2022-12-29T00:23:15.561Z,8.54
2022-12-29T00:24:15.537Z,8.54
2022-12-29T00:25:15.526Z,8.55
2022-12-29T00:26:15.527Z,8.56
2022-12-29T00:27:15.544Z,8.57
2022-12-29T00:28:15.493Z,8.57
2022-12-29T00:29:15.480Z,8.58
2022-12-29T00:30:15.481Z,8.59
2022-12-29T00:31:15.540Z,8.59
2022-12-29T00:32:15.474Z,8.59
2022-12-29T00:33:15.468Z,8.60
2022-12-29T00:34:15.425Z,8.60
2022-12-29T00:35:15.418Z,8.61
2022-12-29T00:36:15.413Z,8.61
2022-12-29T00:37:15.412Z,8.61
2022-12-29T00:38:15.460Z,8.62
2022-12-29T00:39:15.452Z,8.62
2022-12-29T00:40:15.361Z,8.62
2022-12-29T00:41:15.391Z,8.62
2022-12-29T00:42:15.383Z,8.62
2022-12-29T00:43:15.380Z,8.63
2022-12-29T00:44:15.324Z,8.63
2022-12-29T00:45:15.330Z,8.63
2022-12-29T00:46:19.704Z,8.63
2022-12-29T00:47:15.335Z,8.64
2022-12-29T00:48:15.295Z,8.64
2022-12-29T00:49:15.258Z,8.65
2022-12-29T00:50:15.298Z,8.65
2022-12-29T00:51:15.257Z,8.66
2022-12-29T00:52:15.238Z,8.66
2022-12-29T00:53:15.222Z,8.66
2022-12-29T00:54:15.225Z,8.66
2022-12-29T00:55:15.202Z,8.66
2022-12-29T00:56:15.204Z,8.66
2022-12-29T00:57:15.200Z,8.65
2022-12-29T00:58:15.183Z,8.65
2022-12-29T00:59:15.162Z,8.66
2022-12-29T01:00:15.177Z,8.66
2022-12-29T01:01:15.167Z,8.66
2022-12-29T01:02:15.284Z,8.66
2022-12-29T01:03:15.167Z,8.65
2022-12-29T01:04:15.129Z,8.65
2022-12-29T01:05:15.097Z,8.64
2022-12-29T01:06:15.083Z,8.64
2022-12-29T01:07:15.071Z,8.64
2022-12-29T01:08:15.068Z,8.64
2022-12-29T01:09:15.052Z,8.65
2022-12-29T01:10:15.061Z,8.65
2022-12-29T01:11:15.033Z,8.65
2022-12-29T01:12:15.021Z,8.65
2022-12-29T01:13:15.014Z,8.65
2022-12-29T01:14:14.999Z,8.66
2022-12-29T01:15:15.012Z,8.66
2022-12-29T01:16:15.029Z,8.67
2022-12-29T01:17:14.976Z,8.68
2022-12-29T01:18:14.974Z,8.68
2022-12-29T01:19:14.968Z,8.69
2022-12-29T01:20:14.941Z,8.70
2022-12-29T01:21:14.928Z,8.70
2022-12-29T01:22:14.932Z,8.71
2022-12-29T01:23:14.902Z,8.72
2022-12-29T01:24:14.900Z,8.73
2022-12-29T01:25:14.888Z,8.74
2022-12-29T01:26:14.864Z,8.76
2022-12-29T01:27:14.862Z,8.77
2022-12-29T01:28:14.863Z,8.78
2022-12-29T01:29:14.835Z,8.78
2022-12-29T01:30:14.840Z,8.79
2022-12-29T01:31:14.859Z,8.80
2022-12-29T01:32:14.802Z,8.80
2022-12-29T01:33:14.794Z,8.81
2022-12-29T01:34:14.774Z,8.82
2022-12-29T01:35:14.769Z,8.83
2022-12-29T01:36:14.784Z,8.84
2022-12-29T01:37:14.748Z,8.84
2022-12-29T01:38:14.738Z,8.85
2022-12-29T01:39:14.741Z,8.85
2022-12-29T01:40:14.745Z,8.86
2022-12-29T01:41:14.709Z,8.87
2022-12-29T01:42:14.695Z,8.87
2022-12-29T01:43:14.685Z,8.89
2022-12-29T01:44:14.682Z,8.90
2022-12-29T01:45:14.676Z,8.91
2022-12-29T01:46:15.574Z,8.92
2022-12-29T01:47:14.639Z,8.93
2022-12-29T01:48:14.639Z,8.94
2022-12-29T01:49:14.622Z,8.95
2022-12-29T01:50:14.636Z,8.96
2022-12-29T01:51:14.598Z,8.97
2022-12-29T01:52:14.589Z,8.97
2022-12-29T01:53:14.591Z,8.98
2022-12-29T01:54:14.569Z,8.99
2022-12-29T01:55:14.571Z,8.99
2022-12-29T01:56:14.547Z,9.00
2022-12-29T01:57:14.540Z,9.01
2022-12-29T01:58:14.536Z,9.01
2022-12-29T01:59:14.517Z,9.01
2022-12-29T02:00:14.574Z,9.01
2022-12-29T02:01:14.544Z,9.01
2022-12-29T02:02:14.556Z,9.02
2022-12-29T02:03:14.551Z,9.03
2022-12-29T02:04:14.459Z,9.04
2022-12-29T02:05:14.473Z,9.05
2022-12-29T02:06:14.447Z,9.08
2022-12-29T02:07:14.443Z,9.10
2022-12-29T02:08:14.427Z,9.13
2022-12-29T02:09:14.404Z,9.15
2022-12-29T02:10:14.416Z,9.18
2022-12-29T02:11:14.385Z,9.21
2022-12-29T02:12:14.370Z,9.23
2022-12-29T02:13:14.394Z,9.25
2022-12-29T02:14:14.341Z,9.27
2022-12-29T02:15:14.351Z,9.29
2022-12-29T02:16:14.411Z,9.32
2022-12-29T02:17:14.327Z,9.34
2022-12-29T02:18:15.262Z,9.35
2022-12-29T02:19:14.295Z,9.36
2022-12-29T02:20:14.301Z,9.37
2022-12-29T02:21:14.278Z,9.38
2022-12-29T02:22:14.262Z,9.40
2022-12-29T02:23:14.416Z,9.41
2022-12-29T02:24:14.244Z,9.42
2022-12-29T02:25:14.234Z,9.43
2022-12-29T02:26:14.248Z,9.43
2022-12-29T02:27:14.226Z,9.44
2022-12-29T02:28:14.202Z,9.45
2022-12-29T02:29:14.201Z,9.47
2022-12-29T02:30:14.175Z,9.48
2022-12-29T02:31:14.204Z,9.48
2022-12-29T02:32:14.180Z,9.48
2022-12-29T02:33:14.161Z,9.48
2022-12-29T02:34:14.141Z,9.49
2022-12-29T02:35:14.136Z,9.49
2022-12-29T02:36:14.116Z,9.50
2022-12-29T02:37:14.117Z,9.51
2022-12-29T02:38:14.088Z,9.52
2022-12-29T02:39:14.077Z,9.53
2022-12-29T02:40:14.070Z,9.55
2022-12-29T02:41:14.072Z,9.56
2022-12-29T02:42:14.064Z,9.57
2022-12-29T02:43:14.042Z,9.59
2022-12-29T02:44:14.040Z,9.60
2022-12-29T02:45:14.015Z,9.61
2022-12-29T02:46:14.066Z,9.62
2022-12-29T02:47:14.007Z,9.63
2022-12-29T02:48:14.000Z,9.63
2022-12-29T02:49:13.965Z,9.64
2022-12-29T02:50:13.968Z,9.64
2022-12-29T02:51:13.955Z,9.65
2022-12-29T02:52:13.953Z,9.65
2022-12-29T02:53:13.926Z,9.65
2022-12-29T02:54:13.925Z,9.66
2022-12-29T02:55:13.917Z,9.67
2022-12-29T02:56:13.898Z,9.67
2022-12-29T02:57:13.904Z,9.68
2022-12-29T02:58:13.874Z,9.68
2022-12-29T02:59:13.875Z,9.68
2022-12-29T03:00:13.849Z,9.68
2022-12-29T03:01:13.877Z,9.68
2022-12-29T03:02:13.904Z,9.68
2022-12-29T03:03:13.934Z,9.68
2022-12-29T03:04:13.813Z,9.68
2022-12-29T03:05:13.804Z,9.69
2022-12-29T03:06:13.799Z,9.70
2022-12-29T03:07:13.777Z,9.71
2022-12-29T03:08:13.784Z,9.71
2022-12-29T03:09:18.443Z,9.72
2022-12-29T03:10:14.753Z,9.73
2022-12-29T03:11:13.727Z,9.73
2022-12-29T03:12:13.729Z,9.73
2022-12-29T03:13:13.732Z,9.73
2022-12-29T03:14:13.702Z,9.73
2022-12-29T03:15:13.688Z,9.73
2022-12-29T03:16:13.694Z,9.74
2022-12-29T03:17:13.703Z,9.74
2022-12-29T03:18:13.673Z,9.75
2022-12-29T03:19:13.655Z,9.75
2022-12-29T03:20:13.634Z,9.76
2022-12-29T03:21:13.624Z,9.75
2022-12-29T03:22:13.616Z,9.75
2022-12-29T03:23:13.624Z,9.74
2022-12-29T03:24:13.597Z,9.73
2022-12-29T03:25:13.587Z,9.72
2022-12-29T03:26:13.577Z,9.71
2022-12-29T03:27:13.567Z,9.70
2022-12-29T03:28:13.555Z,9.69
2022-12-29T03:29:13.555Z,9.68
2022-12-29T03:30:13.537Z,9.67
2022-12-29T03:31:13.565Z,9.67
2022-12-29T03:32:13.513Z,9.66
2022-12-29T03:33:13.523Z,9.66
2022-12-29T03:34:13.490Z,9.66
2022-12-29T03:35:13.477Z,9.66
2022-12-29T03:36:13.475Z,9.66
2022-12-29T03:37:13.460Z,9.66
2022-12-29T03:38:13.451Z,9.66
2022-12-29T03:39:13.440Z,9.66
2022-12-29T03:40:13.419Z,9.65
2022-12-29T03:41:13.419Z,9.64
2022-12-29T03:42:13.396Z,9.63
2022-12-29T03:43:13.424Z,9.63
2022-12-29T03:44:13.376Z,9.62
2022-12-29T03:45:13.379Z,9.61
2022-12-29T03:46:13.435Z,9.60
2022-12-29T03:47:13.344Z,9.59
2022-12-29T03:48:13.333Z,9.59
2022-12-29T03:49:13.346Z,9.59
2022-12-29T03:50:13.339Z,9.59
2022-12-29T03:51:13.306Z,9.58
2022-12-29T03:52:13.294Z,9.58
2022-12-29T03:53:13.289Z,9.58
2022-12-29T03:54:13.276Z,9.58
2022-12-29T03:55:13.272Z,9.58
2022-12-29T03:56:13.252Z,9.58
2022-12-29T03:57:13.243Z,9.58
2022-12-29T03:58:13.229Z,9.58
2022-12-29T03:59:13.228Z,9.58
2022-12-29T04:00:13.228Z,9.58
2022-12-29T04:01:13.238Z,9.58
2022-12-29T04:02:13.412Z,9.58
2022-12-29T04:03:13.260Z,9.59
2022-12-29T04:04:13.157Z,9.60
2022-12-29T04:05:13.185Z,9.61
2022-12-29T04:06:13.160Z,9.62
2022-12-29T04:07:13.133Z,9.62
2022-12-29T04:08:13.126Z,9.63
2022-12-29T04:09:13.107Z,9.63
2022-12-29T04:10:13.120Z,9.63
2022-12-29T04:11:13.082Z,9.63
2022-12-29T04:12:13.072Z,9.64
2022-12-29T04:13:13.067Z,9.64
2022-12-29T04:14:13.052Z,9.65
2022-12-29T04:15:20.063Z,9.65
2022-12-29T04:16:13.073Z,9.66
2022-12-29T04:17:13.035Z,9.67
2022-12-29T04:18:13.004Z,9.67
2022-12-29T04:19:13.008Z,9.67
2022-12-29T04:20:13.022Z,9.67
2022-12-29T04:21:12.990Z,9.68
2022-12-29T04:22:12.993Z,9.68
2022-12-29T04:23:12.964Z,9.68
2022-12-29T04:24:12.944Z,9.68
2022-12-29T04:25:12.942Z,9.68
2022-12-29T04:26:12.929Z,9.68
2022-12-29T04:27:12.977Z,9.68
2022-12-29T04:28:12.903Z,9.67
2022-12-29T04:29:12.893Z,9.67
2022-12-29T04:30:12.878Z,9.66
2022-12-29T04:31:12.933Z,9.65
2022-12-29T04:32:12.865Z,9.63
2022-12-29T04:33:12.851Z,9.62
2022-12-29T04:34:12.839Z,9.60
2022-12-29T04:35:12.842Z,9.59
2022-12-29T04:36:12.867Z,9.59
2022-12-29T04:37:12.823Z,9.59
2022-12-29T04:38:12.842Z,9.59
2022-12-29T04:39:12.777Z,9.59
2022-12-29T04:40:12.771Z,9.60
2022-12-29T04:41:12.808Z,9.60
2022-12-29T04:42:12.770Z,9.61
2022-12-29T04:43:12.735Z,9.62
2022-12-29T04:44:12.728Z,9.63
2022-12-29T04:45:12.728Z,9.65
2022-12-29T04:46:12.767Z,9.65
2022-12-29T04:47:12.738Z,9.66
2022-12-29T04:48:12.703Z,9.67
2022-12-29T04:49:12.684Z,9.67
2022-12-29T04:50:12.676Z,9.68
2022-12-29T04:51:12.670Z,9.68
2022-12-29T04:52:12.666Z,9.68
2022-12-29T04:53:12.665Z,9.69
2022-12-29T04:54:12.621Z,9.69
2022-12-29T04:55:12.616Z,9.68
2022-12-29T04:56:12.608Z,9.68
2022-12-29T04:57:12.604Z,9.68
2022-12-29T04:58:16.251Z,9.67
2022-12-29T04:59:13.563Z,9.67
2022-12-29T05:00:12.553Z,9.66
2022-12-29T05:01:12.557Z,9.66
2022-12-29T05:02:12.762Z,9.66
2022-12-29T05:03:12.651Z,9.66
2022-12-29T05:04:12.530Z,9.66
2022-12-29T05:05:12.523Z,9.65
2022-12-29T05:06:12.497Z,9.64
2022-12-29T05:07:12.487Z,9.64
2022-12-29T05:08:12.489Z,9.63
2022-12-29T05:09:12.457Z,9.62
2022-12-29T05:10:12.456Z,9.61
2022-12-29T05:11:12.443Z,9.61
2022-12-29T05:12:12.436Z,9.60
2022-12-29T05:13:12.433Z,9.59
2022-12-29T05:14:12.410Z,9.58
2022-12-29T05:15:12.419Z,9.58
2022-12-29T05:16:12.472Z,9.57
2022-12-29T05:17:12.412Z,9.56
2022-12-29T05:18:12.435Z,9.56
2022-12-29T05:19:12.359Z,9.55
2022-12-29T05:20:12.345Z,9.55
2022-12-29T05:21:12.342Z,9.55
2022-12-29T05:22:12.333Z,9.55
2022-12-29T05:23:12.325Z,9.55
2022-12-29T05:24:12.312Z,9.54
2022-12-29T05:25:12.295Z,9.54
2022-12-29T05:26:12.280Z,9.53
2022-12-29T05:27:12.405Z,9.53
2022-12-29T05:28:12.273Z,9.52
2022-12-29T05:29:12.284Z,9.53
2022-12-29T05:30:12.234Z,9.53
2022-12-29T05:31:12.257Z,9.54
2022-12-29T05:32:12.210Z,9.55
2022-12-29T05:33:12.216Z,9.56
2022-12-29T05:34:12.204Z,9.57
2022-12-29T05:35:12.195Z,9.57
2022-12-29T05:36:12.214Z,9.57
2022-12-29T05:37:12.209Z,9.57
2022-12-29T05:38:12.147Z,9.58
2022-12-29T05:39:12.151Z,9.58
2022-12-29T05:40:12.127Z,9.58
2022-12-29T05:41:12.134Z,9.59
2022-12-29T05:42:12.124Z,9.59
2022-12-29T05:43:12.112Z,9.59
2022-12-29T05:44:12.080Z,9.60
2022-12-29T05:45:12.094Z,9.60
2022-12-29T05:46:12.087Z,9.62
2022-12-29T05:47:12.156Z,9.63
2022-12-29T05:48:12.040Z,9.64
2022-12-29T05:49:12.031Z,9.65
2022-12-29T05:50:12.026Z,9.66
2022-12-29T05:51:12.011Z,9.67
2022-12-29T05:52:12.003Z,9.68
2022-12-29T05:53:11.995Z,9.68
2022-12-29T05:54:11.987Z,9.69
2022-12-29T05:55:11.989Z,9.70
2022-12-29T05:56:11.957Z,9.72
2022-12-29T05:57:11.962Z,9.73
2022-12-29T05:58:11.943Z,9.74
2022-12-29T05:59:11.924Z,9.74
2022-12-29T06:00:11.933Z,9.75
2022-12-29T06:01:11.918Z,9.75
2022-12-29T06:02:12.056Z,9.77
2022-12-29T06:03:12.025Z,9.78
2022-12-29T06:04:11.874Z,9.80
2022-12-29T06:05:11.885Z,9.81
2022-12-29T06:06:11.855Z,9.83
2022-12-29T06:07:11.850Z,9.84
2022-12-29T06:08:11.828Z,9.85
2022-12-29T06:09:11.848Z,9.85
2022-12-29T06:10:11.832Z,9.85
2022-12-29T06:11:11.808Z,9.85
2022-12-29T06:12:11.791Z,9.85
2022-12-29T06:13:11.773Z,9.85
2022-12-29T06:14:11.775Z,9.84
2022-12-29T06:15:11.777Z,9.84
2022-12-29T06:16:11.772Z,9.84
2022-12-29T06:17:11.759Z,9.84
2022-12-29T06:18:16.475Z,9.83
2022-12-29T06:19:12.718Z,9.83
2022-12-29T06:20:11.724Z,9.83
2022-12-29T06:21:11.705Z,9.83
2022-12-29T06:22:11.692Z,9.82
2022-12-29T06:23:11.664Z,9.82
2022-12-29T06:24:11.656Z,9.81
2022-12-29T06:25:11.649Z,9.80
2022-12-29T06:26:11.664Z,9.80
2022-12-29T06:27:11.649Z,9.79
2022-12-29T06:28:11.614Z,9.79
2022-12-29T06:29:11.619Z,9.78
2022-12-29T06:30:11.593Z,9.76
2022-12-29T06:31:11.690Z,9.75
2022-12-29T06:32:11.630Z,9.75
2022-12-29T06:33:11.560Z,9.74
2022-12-29T06:34:11.550Z,9.73
2022-12-29T06:35:11.547Z,9.73
2022-12-29T06:36:11.544Z,9.74
2022-12-29T06:37:11.535Z,9.74
2022-12-29T06:38:11.521Z,9.74
2022-12-29T06:39:11.501Z,9.74
2022-12-29T06:40:11.493Z,9.74
2022-12-29T06:41:11.480Z,9.75
2022-12-29T06:42:11.458Z,9.75
2022-12-29T06:43:11.458Z,9.75
2022-12-29T06:44:11.456Z,9.76
2022-12-29T06:45:11.457Z,9.77
2022-12-29T06:46:11.462Z,9.78
2022-12-29T06:47:11.416Z,9.79
2022-12-29T06:48:11.409Z,9.80
2022-12-29T06:49:11.390Z,9.80
2022-12-29T06:50:11.399Z,9.80
2022-12-29T06:51:11.402Z,9.80
2022-12-29T06:52:13.118Z,9.81
2022-12-29T06:53:11.373Z,9.82
2022-12-29T06:54:11.349Z,9.82
2022-12-29T06:55:11.328Z,9.83
2022-12-29T06:56:11.336Z,9.84
2022-12-29T06:57:11.301Z,9.85
2022-12-29T06:58:11.300Z,9.86
2022-12-29T06:59:11.280Z,9.87
2022-12-29T07:00:11.277Z,9.87
2022-12-29T07:01:11.292Z,9.88
2022-12-29T07:02:11.579Z,9.88
2022-12-29T07:03:11.274Z,9.89
2022-12-29T07:04:11.261Z,9.89
2022-12-29T07:05:11.208Z,9.89
2022-12-29T07:06:11.227Z,9.89
2022-12-29T07:07:11.202Z,9.90
2022-12-29T07:08:11.186Z,9.90
2022-12-29T07:09:11.171Z,9.90
2022-12-29T07:10:11.163Z,9.91
2022-12-29T07:11:11.145Z,9.92
2022-12-29T07:12:11.160Z,9.93
2022-12-29T07:13:11.129Z,9.94
2022-12-29T07:14:11.129Z,9.95
2022-12-29T07:15:11.117Z,9.96
2022-12-29T07:16:11.179Z,9.96
2022-12-29T07:17:11.156Z,9.96
2022-12-29T07:18:11.103Z,9.96
2022-12-29T07:19:11.066Z,9.96
2022-12-29T07:20:11.050Z,9.96
2022-12-29T07:21:11.042Z,9.96
2022-12-29T07:22:11.069Z,9.96
2022-12-29T07:23:11.017Z,9.96
2022-12-29T07:24:11.025Z,9.96
2022-12-29T07:25:10.999Z,9.96
2022-12-29T07:26:10.984Z,9.96
2022-12-29T07:27:10.990Z,9.97
2022-12-29T07:28:10.974Z,9.97
2022-12-29T07:29:10.978Z,9.97
2022-12-29T07:30:10.953Z,9.97
2022-12-29T07:31:10.937Z,9.97
2022-12-29T07:32:10.970Z,9.96
2022-12-29T07:33:10.923Z,9.96
2022-12-29T07:34:10.922Z,9.95
2022-12-29T07:35:10.923Z,9.95
2022-12-29T07:36:10.910Z,9.94
2022-12-29T07:37:10.884Z,9.94
2022-12-29T07:38:10.868Z,9.94
2022-12-29T07:39:10.851Z,9.94
2022-12-29T07:40:10.862Z,9.95
2022-12-29T07:41:10.838Z,9.95
2022-12-29T07:42:10.838Z,9.95
2022-12-29T07:43:10.811Z,9.96
2022-12-29T07:44:10.791Z,9.96
2022-12-29T07:45:10.784Z,9.96
2022-12-29T07:46:18.955Z,9.96
2022-12-29T07:47:11.790Z,9.95
2022-12-29T07:48:10.740Z,9.95
2022-12-29T07:49:10.740Z,9.95
2022-12-29T07:50:10.739Z,9.95
2022-12-29T07:51:10.711Z,9.95
2022-12-29T07:52:10.709Z,9.96
2022-12-29T07:53:10.705Z,9.96
2022-12-29T07:54:10.679Z,9.97
2022-12-29T07:55:10.677Z,9.98
2022-12-29T07:56:10.660Z,9.99
2022-12-29T07:57:10.659Z,10.00
2022-12-29T07:58:10.649Z,10.01
2022-12-29T07:59:10.624Z,10.01
2022-12-29T08:00:10.622Z,10.01
2022-12-29T08:01:10.631Z,10.02
2022-12-29T08:02:10.677Z,10.02
2022-12-29T08:03:10.591Z,10.03
2022-12-29T08:04:10.626Z,10.04
2022-12-29T08:05:10.569Z,10.07
2022-12-29T08:06:10.569Z,10.09
2022-12-29T08:07:10.551Z,10.12
2022-12-29T08:08:10.533Z,10.13
2022-12-29T08:09:15.080Z,10.14
2022-12-29T08:10:11.528Z,10.15
2022-12-29T08:11:10.503Z,10.16
2022-12-29T08:12:10.492Z,10.17
2022-12-29T08:13:10.481Z,10.19
2022-12-29T08:14:10.463Z,10.21
2022-12-29T08:15:10.475Z,10.22
2022-12-29T08:16:10.506Z,10.24
2022-12-29T08:17:10.431Z,10.25
2022-12-29T08:18:10.435Z,10.26
2022-12-29T08:19:10.417Z,10.28
2022-12-29T08:20:10.418Z,10.29
2022-12-29T08:21:10.397Z,10.29
2022-12-29T08:22:10.372Z,10.30
2022-12-29T08:23:10.389Z,10.31
2022-12-29T08:24:10.426Z,10.32
2022-12-29T08:25:10.360Z,10.33
2022-12-29T08:26:10.347Z,10.35
2022-12-29T08:27:18.189Z,10.36
2022-12-29T08:28:11.317Z,10.37
2022-12-29T08:29:10.301Z,10.38
2022-12-29T08:30:10.309Z,10.39
2022-12-29T08:31:10.301Z,10.39
2022-12-29T08:32:10.267Z,10.39
2022-12-29T08:33:10.278Z,10.40
2022-12-29T08:34:10.254Z,10.40
2022-12-29T08:35:10.280Z,10.39
2022-12-29T08:36:10.231Z,10.39
2022-12-29T08:37:10.209Z,10.40
2022-12-29T08:38:10.224Z,10.41
2022-12-29T08:39:10.200Z,10.41
2022-12-29T08:40:10.190Z,10.42
2022-12-29T08:41:10.177Z,10.43
2022-12-29T08:42:10.171Z,10.45
2022-12-29T08:43:10.826Z,10.46
2022-12-29T08:44:10.146Z,10.48
2022-12-29T08:45:10.117Z,10.49
2022-12-29T08:46:10.179Z,10.50
2022-12-29T08:47:10.097Z,10.53
2022-12-29T08:48:10.095Z,10.55
2022-12-29T08:49:10.080Z,10.57
2022-12-29T08:50:10.080Z,10.59
2022-12-29T08:51:10.083Z,10.60
2022-12-29T08:52:10.051Z,10.61
2022-12-29T08:53:10.041Z,10.62
2022-12-29T08:54:10.023Z,10.64
2022-12-29T08:55:10.034Z,10.66
2022-12-29T08:56:10.030Z,10.68
2022-12-29T08:57:10.007Z,10.71
2022-12-29T08:58:10.006Z,10.74
2022-12-29T08:59:09.983Z,10.77
2022-12-29T09:00:09.978Z,10.80
2022-12-29T09:01:10.050Z,10.82
2022-12-29T09:02:10.136Z,10.85
2022-12-29T09:03:10.331Z,10.89
2022-12-29T09:04:15.407Z,10.94
2022-12-29T09:05:10.992Z,10.99
2022-12-29T09:06:09.904Z,11.03
2022-12-29T09:07:09.916Z,11.07
2022-12-29T09:08:09.907Z,11.10
2022-12-29T09:09:09.871Z,11.13
2022-12-29T09:10:09.868Z,11.17
2022-12-29T09:11:09.913Z,11.21
2022-12-29T09:12:09.843Z,11.25
2022-12-29T09:13:09.825Z,11.29
2022-12-29T09:14:09.831Z,11.33
2022-12-29T09:15:09.829Z,11.36
2022-12-29T09:16:09.893Z,11.39
2022-12-29T09:17:09.782Z,11.41
2022-12-29T09:18:09.788Z,11.42
2022-12-29T09:19:09.761Z,11.41
2022-12-29T09:20:09.770Z,11.41
2022-12-29T09:21:09.796Z,11.40
2022-12-29T09:22:09.723Z,11.38
2022-12-29T09:23:09.724Z,11.38
2022-12-29T09:24:09.715Z,11.38
2022-12-29T09:25:09.703Z,11.39
2022-12-29T09:26:09.692Z,11.40
2022-12-29T09:27:09.680Z,11.41
2022-12-29T09:28:09.671Z,11.42
2022-12-29T09:29:09.658Z,11.44
2022-12-29T09:30:09.661Z,11.46
2022-12-29T09:31:09.709Z,11.47
2022-12-29T09:32:13.892Z,11.48
2022-12-29T09:33:10.617Z,11.48
2022-12-29T09:34:09.607Z,11.48
2022-12-29T09:35:09.646Z,11.48
2022-12-29T09:36:09.568Z,11.50
2022-12-29T09:37:09.574Z,11.52
2022-12-29T09:38:09.567Z,11.55
2022-12-29T09:39:09.548Z,11.56
2022-12-29T09:40:09.549Z,11.57
2022-12-29T09:41:09.558Z,11.58
2022-12-29T09:42:09.535Z,11.59
2022-12-29T09:43:09.513Z,11.60
2022-12-29T09:44:09.510Z,11.61
2022-12-29T09:45:09.515Z,11.62
2022-12-29T09:46:09.529Z,11.63
2022-12-29T09:47:09.601Z,11.63
2022-12-29T09:48:09.929Z,11.63
2022-12-29T09:49:09.473Z,11.63
2022-12-29T09:50:09.421Z,11.62
2022-12-29T09:51:09.455Z,11.60
2022-12-29T09:52:09.408Z,11.59
2022-12-29T09:53:09.394Z,11.58
2022-12-29T09:54:09.387Z,11.58
2022-12-29T09:55:13.876Z,11.58
2022-12-29T09:56:09.357Z,11.57
2022-12-29T09:57:09.370Z,11.57
2022-12-29T09:58:09.340Z,11.57
2022-12-29T09:59:09.329Z,11.57
2022-12-29T10:00:09.323Z,11.58
2022-12-29T10:01:09.413Z,11.58
2022-12-29T10:02:09.459Z,11.58
2022-12-29T10:03:09.332Z,11.58
2022-12-29T10:04:09.284Z,11.58
2022-12-29T10:05:09.291Z,11.58
2022-12-29T10:06:09.293Z,11.57
2022-12-29T10:07:29.024Z,11.56
2022-12-29T10:08:14.028Z,11.55
2022-12-29T10:09:10.221Z,11.54
2022-12-29T10:10:09.204Z,11.53
2022-12-29T10:11:09.206Z,11.53
2022-12-29T10:12:09.235Z,11.52
2022-12-29T10:13:09.195Z,11.52
2022-12-29T10:14:13.869Z,11.51
2022-12-29T10:15:10.161Z,11.51
2022-12-29T10:16:09.270Z,11.50
2022-12-29T10:17:09.140Z,11.50
2022-12-29T10:18:09.140Z,11.50
2022-12-29T10:19:09.120Z,11.50
2022-12-29T10:20:09.122Z,11.51
2022-12-29T10:21:09.108Z,11.51
2022-12-29T10:22:09.080Z,11.50
2022-12-29T10:23:09.092Z,11.50
2022-12-29T10:24:09.086Z,11.50
2022-12-29T10:25:09.063Z,11.51
2022-12-29T10:26:09.074Z,11.53
2022-12-29T10:27:09.024Z,11.55
2022-12-29T10:28:09.035Z,11.57
2022-12-29T10:29:09.011Z,11.59
2022-12-29T10:30:16.003Z,11.61
2022-12-29T10:31:09.211Z,11.62
2022-12-29T10:32:09.028Z,11.63
2022-12-29T10:33:08.963Z,11.64
2022-12-29T10:34:08.944Z,11.64
2022-12-29T10:35:08.945Z,11.65
2022-12-29T10:36:08.923Z,11.67
2022-12-29T10:37:08.924Z,11.70
2022-12-29T10:38:08.920Z,11.73
2022-12-29T10:39:08.892Z,11.76
2022-12-29T10:40:08.881Z,11.79
2022-12-29T10:41:08.960Z,11.81
2022-12-29T10:42:08.872Z,11.83
2022-12-29T10:43:08.871Z,11.85
2022-12-29T10:44:08.850Z,11.86
2022-12-29T10:45:08.827Z,11.88
2022-12-29T10:46:08.896Z,11.89
2022-12-29T10:47:08.824Z,11.91
2022-12-29T10:48:08.823Z,11.91
2022-12-29T10:49:08.829Z,11.92
2022-12-29T10:50:08.780Z,11.93
2022-12-29T10:51:08.776Z,11.95
2022-12-29T10:52:08.755Z,11.97
2022-12-29T10:53:08.743Z,11.99
2022-12-29T10:54:08.747Z,12.00
2022-12-29T10:55:08.787Z,12.01
2022-12-29T10:56:08.719Z,12.00
2022-12-29T10:57:08.695Z,11.99
2022-12-29T10:58:08.709Z,11.98
2022-12-29T10:59:08.687Z,11.97
2022-12-29T11:00:08.687Z,11.96
2022-12-29T11:01:08.761Z,11.95
2022-12-29T11:02:08.767Z,11.93
2022-12-29T11:03:08.702Z,11.93
2022-12-29T11:04:08.619Z,11.92
2022-12-29T11:05:08.641Z,11.91
2022-12-29T11:06:08.632Z,11.91
2022-12-29T11:07:15.019Z,11.91
2022-12-29T11:08:09.588Z,11.91
2022-12-29T11:09:08.604Z,11.91
2022-12-29T11:10:08.569Z,11.92
2022-12-29T11:11:08.549Z,11.92
2022-12-29T11:12:08.549Z,11.92
2022-12-29T11:13:08.537Z,11.91
2022-12-29T11:14:08.512Z,11.92
2022-12-29T11:15:08.508Z,11.92
2022-12-29T11:16:08.533Z,11.92
2022-12-29T11:17:08.506Z,11.92
2022-12-29T11:18:08.472Z,11.93
2022-12-29T11:19:08.470Z,11.95
2022-12-29T11:20:08.449Z,11.98
2022-12-29T11:21:08.446Z,12.00
2022-12-29T11:22:08.461Z,12.03
2022-12-29T11:23:08.439Z,12.05
2022-12-29T11:24:08.412Z,12.07
2022-12-29T11:25:08.398Z,12.09
2022-12-29T11:26:08.385Z,12.11
2022-12-29T11:27:08.401Z,12.12
2022-12-29T11:28:08.363Z,12.12
2022-12-29T11:29:08.364Z,12.12
2022-12-29T11:30:08.372Z,12.12
2022-12-29T11:31:08.343Z,12.11
2022-12-29T11:32:08.362Z,12.11
2022-12-29T11:33:08.324Z,12.11
2022-12-29T11:34:08.306Z,12.10
2022-12-29T11:35:08.289Z,12.09
2022-12-29T11:36:08.278Z,12.09
2022-12-29T11:37:08.279Z,12.08
2022-12-29T11:38:08.276Z,12.08
2022-12-29T11:39:13.876Z,12.08
2022-12-29T11:40:09.286Z,12.09
2022-12-29T11:41:08.230Z,12.09
2022-12-29T11:42:08.216Z,12.10
2022-12-29T11:43:08.220Z,12.10
2022-12-29T11:44:08.226Z,12.11
2022-12-29T11:45:11.095Z,12.12
2022-12-29T11:46:08.249Z,12.13
2022-12-29T11:47:08.158Z,12.14
2022-12-29T11:48:08.162Z,12.15
2022-12-29T11:49:08.136Z,12.17
2022-12-29T11:50:08.142Z,12.18
2022-12-29T11:51:08.123Z,12.20
2022-12-29T11:52:08.123Z,12.23
2022-12-29T11:53:08.112Z,12.25
2022-12-29T11:54:08.090Z,12.28
2022-12-29T11:55:08.089Z,12.32
2022-12-29T11:56:08.059Z,12.35
2022-12-29T11:57:08.048Z,12.37
2022-12-29T11:58:08.075Z,12.39
2022-12-29T11:59:08.023Z,12.40
2022-12-29T12:00:08.026Z,12.41
2022-12-29T12:01:08.023Z,12.40
2022-12-29T12:02:08.051Z,12.39
2022-12-29T12:03:08.094Z,12.37
2022-12-29T12:04:08.044Z,12.35
2022-12-29T12:05:07.987Z,12.32
2022-12-29T12:06:07.973Z,12.30
2022-12-29T12:07:07.959Z,12.28
2022-12-29T12:08:07.949Z,12.26
2022-12-29T12:09:07.919Z,12.25
2022-12-29T12:10:08.344Z,12.24
2022-12-29T12:11:07.915Z,12.23
2022-12-29T12:12:07.901Z,12.24
2022-12-29T12:13:07.876Z,12.25
2022-12-29T12:14:07.883Z,12.25
2022-12-29T12:15:07.859Z,12.26
2022-12-29T12:16:07.896Z,12.27
2022-12-29T12:17:07.841Z,12.28
2022-12-29T12:18:07.828Z,12.28
2022-12-29T12:19:07.834Z,12.27
2022-12-29T12:20:07.810Z,12.26
2022-12-29T12:21:07.806Z,12.25
2022-12-29T12:22:07.825Z,12.24
2022-12-29T12:23:07.765Z,12.23
2022-12-29T12:24:07.780Z,12.21
2022-12-29T12:25:07.747Z,12.19
2022-12-29T12:26:07.776Z,12.17
2022-12-29T12:27:07.744Z,12.16
2022-12-29T12:28:07.713Z,12.15
2022-12-29T12:29:07.715Z,12.14
2022-12-29T12:30:07.712Z,12.13
2022-12-29T12:31:07.742Z,12.12
2022-12-29T12:32:07.700Z,12.11
2022-12-29T12:33:07.688Z,12.09
2022-12-29T12:34:07.662Z,12.08
2022-12-29T12:35:07.648Z,12.06
2022-12-29T12:36:07.655Z,12.03
2022-12-29T12:37:07.622Z,12.01
2022-12-29T12:38:07.614Z,11.98
2022-12-29T12:39:07.620Z,11.96
2022-12-29T12:40:07.593Z,11.95
2022-12-29T12:41:07.590Z,11.93
2022-12-29T12:42:07.596Z,11.92
2022-12-29T12:43:07.576Z,11.91
2022-12-29T12:44:07.543Z,11.90
2022-12-29T12:45:07.536Z,11.89
2022-12-29T12:46:07.534Z,11.88
2022-12-29T12:47:07.507Z,11.87
2022-12-29T12:48:07.518Z,11.86
2022-12-29T12:49:07.510Z,11.85
2022-12-29T12:50:07.474Z,11.84
2022-12-29T12:51:07.464Z,11.83
2022-12-29T12:52:07.462Z,11.82
2022-12-29T12:53:07.468Z,11.82
2022-12-29T12:54:07.445Z,11.81
2022-12-29T12:55:07.485Z,11.80
2022-12-29T12:56:07.411Z,11.80
2022-12-29T12:57:07.407Z,11.79
2022-12-29T12:58:07.398Z,11.78
2022-12-29T12:59:10.094Z,11.78
2022-12-29T13:00:07.382Z,11.76
2022-12-29T13:01:07.419Z,11.75
2022-12-29T13:02:07.490Z,11.73
2022-12-29T13:03:07.591Z,11.72
2022-12-29T13:04:07.365Z,11.70
2022-12-29T13:05:07.340Z,11.68
2022-12-29T13:06:07.312Z,11.66
2022-12-29T13:07:07.306Z,11.64
2022-12-29T13:08:07.291Z,11.63